Time;durP1;ratioP1;P1;durP2;ratioP2;P2;SDS_P1;SDS_P2;PMS_P1;PMS_P2;Temp;Humidity;BMP_temperature;BMP_pressure;BME280_temperature;BME280_humidity;BME280_pressure;Samples;Min_cycle;Max_cycle;Signal;HPM_P1;HPM_P2
2022/05/21 00:00:03;;;;;;;16.38;2.72;;;;;;;12.40;100.00;101875.94;5014169;28;20033;-88
2022/05/21 00:02:29;;;;;;;16.30;3.33;;;;;;;12.44;100.00;101879.38;5030822;28;20029;-88
2022/05/21 00:04:54;;;;;;;14.98;3.03;;;;;;;12.45;100.00;101868.72;5009632;28;20064;-87
2022/05/21 00:07:20;;;;;;;12.30;3.40;;;;;;;12.53;100.00;101873.75;4999590;28;20481;-87
2022/05/21 00:09:45;;;;;;;19.50;3.20;;;;;;;12.53;100.00;101864.88;5015922;28;20084;-87
2022/05/21 00:12:11;;;;;;;16.55;3.25;;;;;;;12.56;100.00;101870.97;5032540;28;20060;-87
2022/05/21 00:14:36;;;;;;;15.32;3.33;;;;;;;12.58;100.00;101873.56;5030653;28;20029;-87
2022/05/21 00:17:03;;;;;;;18.92;4.20;;;;;;;12.58;100.00;101871.78;5015152;28;20094;-87
2022/05/21 00:19:28;;;;;;;12.50;2.90;;;;;;;12.62;100.00;101886.69;5035996;28;20022;-87
2022/05/21 00:21:53;;;;;;;16.48;3.53;;;;;;;12.68;100.00;101880.25;5018353;28;20385;-87
2022/05/21 00:24:19;;;;;;;14.88;3.60;;;;;;;12.71;100.00;101872.19;5018962;28;20424;-87
2022/05/21 00:26:44;;;;;;;19.42;3.60;;;;;;;12.73;100.00;101883.59;5034934;28;20079;-86
2022/05/21 00:29:10;;;;;;;10.57;3.10;;;;;;;12.79;100.00;101882.53;4999288;28;20025;-87
2022/05/21 00:31:36;;;;;;;12.85;3.45;;;;;;;12.83;100.00;101880.63;5018785;28;20108;-88
2022/05/21 00:34:02;;;;;;;16.83;3.50;;;;;;;12.87;100.00;101888.41;5002661;28;20030;-88
2022/05/21 00:36:29;;;;;;;14.95;3.63;;;;;;;12.89;100.00;101886.56;5035773;28;20026;-89
2022/05/21 00:38:56;;;;;;;15.20;3.17;;;;;;;12.92;100.00;101897.09;5019542;28;20171;-87
2022/05/21 00:41:22;;;;;;;16.25;3.75;;;;;;;12.96;100.00;101889.84;5034185;28;20272;-89
2022/05/21 00:43:57;;;;;;;12.40;3.22;;;;;;;12.98;100.00;101892.44;5019552;28;20030;-88
2022/05/21 00:46:29;;;;;;;17.38;3.55;;;;;;;13.02;100.00;101886.09;5034570;28;20033;-88
2022/05/21 00:49:27;;;;;;;15.90;3.80;;;;;;;13.00;100.00;101891.47;5036342;28;20062;-88
2022/05/21 00:51:58;;;;;;;12.38;3.53;;;;;;;13.04;100.00;101887.75;5036507;28;20028;-88
2022/05/21 00:54:30;;;;;;;18.05;3.88;;;;;;;13.05;100.00;101880.66;5047686;28;20017;-86
2022/05/21 00:57:32;;;;;;;14.15;3.72;;;;;;;13.10;100.00;101879.56;5049565;28;20046;-87
2022/05/21 01:00:02;;;;;;;;;;;;;;;13.12;100.00;101890.16;5024521;28;20021;-84
2022/05/21 01:02:56;;;;;;;12.57;2.97;;;;;;;13.13;100.00;101877.72;5039370;28;20304;-87
2022/05/21 01:05:25;;;;;;;12.65;3.35;;;;;;;13.11;100.00;101886.59;5046261;28;20072;-87
2022/05/21 01:07:55;;;;;;;18.30;3.92;;;;;;;13.10;100.00;101884.00;5032792;28;20481;-87
2022/05/21 01:10:23;;;;;;;19.05;3.65;;;;;;;13.05;100.00;101873.53;5019563;28;20497;-87
2022/05/21 01:12:52;;;;;;;18.55;4.03;;;;;;;13.07;100.00;101886.81;5034616;28;20033;-88
2022/05/21 01:15:22;;;;;;;17.70;3.95;;;;;;;13.03;100.00;101887.81;5034728;28;20028;-87
2022/05/21 01:17:47;;;;;;;15.27;3.65;;;;;;;13.05;100.00;101883.31;5017405;28;20025;-87
2022/05/21 01:20:18;;;;;;;19.65;3.90;;;;;;;13.02;100.00;101888.75;5013699;28;20511;-88
2022/05/21 01:22:48;;;;;;;23.17;4.03;;;;;;;13.04;100.00;101895.75;5035079;28;20040;-88
2022/05/21 01:25:19;;;;;;;18.08;4.05;;;;;;;13.01;100.00;101879.91;5032903;28;20025;-87
2022/05/21 01:27:46;;;;;;;16.95;3.53;;;;;;;13.00;100.00;101893.28;5033944;28;20525;-88
2022/05/21 01:30:16;;;;;;;13.73;3.47;;;;;;;13.01;100.00;101895.88;5035942;28;20053;-87
2022/05/21 01:32:46;;;;;;;20.20;4.57;;;;;;;13.00;100.00;101890.63;5034322;28;20057;-88
2022/05/21 01:35:12;;;;;;;15.63;3.30;;;;;;;13.00;100.00;101887.97;5034244;28;20055;-88
2022/05/21 01:37:39;;;;;;;16.33;4.28;;;;;;;12.95;100.00;101890.78;5016674;28;20029;-88
2022/05/21 01:40:08;;;;;;;17.90;3.58;;;;;;;12.95;100.00;101893.44;5049412;28;20108;-87
2022/05/21 01:42:34;;;;;;;19.92;3.72;;;;;;;12.92;100.00;101890.91;5018183;28;20090;-88
2022/05/21 01:45:00;;;;;;;19.48;3.72;;;;;;;12.92;100.00;101897.09;5031984;28;20396;-89
2022/05/21 01:47:26;;;;;;;23.40;3.63;;;;;;;12.85;100.00;101903.56;5015509;28;20052;-89
2022/05/21 01:49:51;;;;;;;17.10;3.97;;;;;;;12.78;100.00;101894.09;5033302;28;20516;-87
2022/05/21 01:52:17;;;;;;;15.35;3.78;;;;;;;12.77;100.00;101898.53;5033211;28;20384;-88
2022/05/21 01:54:43;;;;;;;17.63;3.70;;;;;;;12.72;100.00;101899.63;5000440;28;20030;-88
2022/05/21 01:57:09;;;;;;;20.95;3.90;;;;;;;12.68;100.00;101884.72;5032426;28;20026;-87
2022/05/21 01:59:35;;;;;;;15.65;3.83;;;;;;;12.63;100.00;101895.50;5017732;28;20025;-87
2022/05/21 02:02:01;;;;;;;18.70;3.67;;;;;;;12.60;100.00;101899.13;4998184;28;20492;-86
2022/05/21 02:04:27;;;;;;;17.17;4.47;;;;;;;12.60;100.00;101898.28;5026801;28;20025;-86
2022/05/21 02:06:53;;;;;;;18.27;3.70;;;;;;;12.55;100.00;101882.50;5034421;28;20026;-87
2022/05/21 02:09:18;;;;;;;26.27;4.35;;;;;;;12.57;100.00;101882.44;5022448;28;20030;-88
2022/05/21 02:11:45;;;;;;;19.38;3.60;;;;;;;12.49;100.00;101896.00;5014428;28;20356;-86
2022/05/21 02:14:11;;;;;;;18.75;3.75;;;;;;;12.50;100.00;101887.13;5016450;28;20075;-87
2022/05/21 02:16:37;;;;;;;20.90;4.03;;;;;;;12.52;100.00;101895.91;5032994;28;20297;-87
2022/05/21 02:19:09;;;;;;;20.52;3.50;;;;;;;12.45;100.00;101900.59;5028333;28;20037;-88
2022/05/21 02:21:37;;;;;;;15.45;3.40;;;;;;;12.44;100.00;101900.63;5003926;28;20507;-88
2022/05/21 02:24:04;;;;;;;23.73;3.80;;;;;;;12.40;100.00;101910.47;5032724;28;20034;-88
2022/05/21 02:26:33;;;;;;;17.02;3.33;;;;;;;12.40;100.00;101888.38;5019139;28;20040;-87
2022/05/21 02:28:59;;;;;;;23.25;4.22;;;;;;;12.40;100.00;101897.19;5036273;28;20107;-86
2022/05/21 02:31:26;;;;;;;19.27;3.63;;;;;;;12.40;100.00;101907.81;5001034;28;20124;-87
2022/05/21 02:33:51;;;;;;;17.17;3.40;;;;;;;12.41;100.00;101904.25;5017134;28;20025;-88
2022/05/21 02:36:16;;;;;;;19.70;3.63;;;;;;;12.38;100.00;101898.16;5014660;28;20029;-88
2022/05/21 02:41:26;;;;;;;15.50;3.22;;;;;;;12.36;100.00;101902.69;5030979;28;20035;-86
2022/05/21 02:43:51;;;;;;;15.57;3.45;;;;;;;12.34;100.00;101908.06;5016512;28;20045;-87
2022/05/21 02:46:17;;;;;;;19.27;4.50;;;;;;;12.32;100.00;101901.06;5040215;28;20037;-87
2022/05/21 02:48:42;;;;;;;15.85;3.60;;;;;;;12.31;100.00;101908.16;5016957;28;20118;-88
2022/05/21 02:51:10;;;;;;;13.68;3.08;;;;;;;12.29;100.00;101917.97;5017378;28;20025;-88
2022/05/21 02:53:39;;;;;;;21.48;3.33;;;;;;;12.24;100.00;101898.69;5033152;28;20032;-87
2022/05/21 02:56:10;;;;;;;14.93;3.38;;;;;;;12.25;100.00;101916.31;5019146;28;20041;-88
2022/05/21 02:58:36;;;;;;;20.77;4.10;;;;;;;12.20;100.00;101899.69;5032973;28;20152;-87
2022/05/21 03:01:02;;;;;;;19.05;3.30;;;;;;;12.25;100.00;101908.34;5033292;28;20295;-88
2022/05/21 03:03:28;;;;;;;13.55;2.72;;;;;;;12.21;100.00;101909.41;5032968;28;20029;-88
2022/05/21 03:05:53;;;;;;;13.82;3.25;;;;;;;12.19;100.00;101911.25;5000202;28;20033;-88
2022/05/21 03:11:21;;;;;;;17.58;3.75;;;;;;;12.11;100.00;101912.38;5028960;28;20090;-88
2022/05/21 03:13:47;;;;;;;15.50;3.22;;;;;;;12.08;100.00;101916.91;5017751;28;20088;-87
2022/05/21 03:16:13;;;;;;;17.30;3.25;;;;;;;12.08;100.00;101920.41;5053742;28;20002;-87
2022/05/21 03:18:39;;;;;;;13.60;3.38;;;;;;;12.06;100.00;101918.75;5026470;28;20025;-88
2022/05/21 03:21:05;;;;;;;15.07;3.03;;;;;;;12.00;100.00;101911.88;5056756;28;20053;-88
2022/05/21 03:23:30;;;;;;;12.95;3.00;;;;;;;11.99;100.00;101907.47;5026011;28;20029;-85
2022/05/21 03:25:56;;;;;;;17.17;3.15;;;;;;;11.97;100.00;101914.63;5022374;28;20014;-87
2022/05/21 03:28:21;;;;;;;21.92;3.92;;;;;;;11.99;100.00;101919.88;5000480;28;20029;-88
2022/05/21 03:30:48;;;;;;;11.82;2.53;;;;;;;11.95;100.00;101925.28;5021273;28;20552;-88
2022/05/21 03:33:13;;;;;;;19.42;3.30;;;;;;;11.98;100.00;101918.16;5032468;28;20112;-89
2022/05/21 03:35:41;;;;;;;15.63;3.03;;;;;;;12.01;100.00;101918.03;5032937;28;20121;-87
2022/05/21 03:38:08;;;;;;;15.38;3.30;;;;;;;12.02;100.00;101933.94;5032140;28;20036;-87
2022/05/21 03:40:33;;;;;;;13.10;3.03;;;;;;;11.99;100.00;101931.34;5033133;28;20048;-87
2022/05/21 03:42:59;;;;;;;17.67;3.00;;;;;;;12.00;100.00;101934.91;5013358;28;20034;-87
2022/05/21 03:45:26;;;;;;;18.00;3.20;;;;;;;12.01;100.00;101934.84;5014326;28;20538;-88
2022/05/21 03:47:51;;;;;;;14.95;2.78;;;;;;;11.98;100.00;101931.41;5032108;28;20053;-87
2022/05/21 03:50:20;;;;;;;16.95;3.22;;;;;;;11.99;100.00;101927.84;5045066;28;20036;-88
2022/05/21 03:52:46;;;;;;;14.20;3.00;;;;;;;11.96;100.00;101934.97;5048519;28;20017;-87
2022/05/21 03:55:11;;;;;;;16.20;3.00;;;;;;;11.95;100.00;101927.94;5045691;28;20052;-88
2022/05/21 03:57:37;;;;;;;15.27;3.42;;;;;;;11.97;100.00;101938.53;5038979;28;20039;-88
2022/05/21 04:00:06;;;;;;;14.18;2.70;;;;;;;11.95;100.00;101927.03;5045406;28;20063;-87
2022/05/21 04:02:32;;;;;;;14.50;2.70;;;;;;;11.97;100.00;101925.25;5039912;28;20075;-87
2022/05/21 04:04:58;;;;;;;13.70;3.03;;;;;;;11.97;100.00;101930.56;5022345;28;20030;-87
2022/05/21 04:07:24;;;;;;;19.75;3.17;;;;;;;11.96;100.00;101934.97;5038369;28;20085;-87
2022/05/21 04:09:49;;;;;;;16.58;3.17;;;;;;;12.00;100.00;101926.94;5025610;28;20131;-87
2022/05/21 04:12:15;;;;;;;16.27;3.38;;;;;;;12.03;100.00;101937.44;5036824;28;20033;-88
2022/05/21 04:14:59;;;;;;;14.35;3.30;;;;;;;12.03;100.00;101940.09;5046467;28;20035;-88
2022/05/21 04:17:24;;;;;;;17.60;3.20;;;;;;;12.03;100.00;101930.34;5012559;28;20052;-88
2022/05/21 04:19:50;;;;;;;13.85;2.70;;;;;;;12.04;100.00;101941.84;5040150;28;20474;-88
2022/05/21 04:22:15;;;;;;;16.38;3.35;;;;;;;12.05;100.00;101938.28;5047526;28;20029;-88
2022/05/21 04:24:40;;;;;;;16.17;4.43;;;;;;;12.03;100.00;101938.28;5041864;28;20029;-87
2022/05/21 04:27:07;;;;;;;13.05;3.53;;;;;;;12.01;100.00;101948.13;5033091;28;20033;-87
2022/05/21 04:29:34;;;;;;;13.23;3.40;;;;;;;12.04;100.00;101957.75;5031770;28;20017;-87
2022/05/21 04:31:59;;;;;;;18.85;3.22;;;;;;;12.04;100.00;101955.97;5067191;28;20029;-89
2022/05/21 04:34:25;;;;;;;14.20;2.80;;;;;;;12.03;100.00;101959.53;5070837;28;20048;-89
2022/05/21 04:36:50;;;;;;;19.30;3.97;;;;;;;12.00;100.00;101961.44;5059061;28;20029;-87
2022/05/21 04:39:16;;;;;;;13.98;3.33;;;;;;;12.00;100.00;101950.84;5082684;28;20460;-88
2022/05/21 04:41:41;;;;;;;15.60;3.00;;;;;;;12.00;100.00;101951.69;5064476;28;20388;-87
2022/05/21 04:44:07;;;;;;;18.20;2.95;;;;;;;12.06;100.00;101972.72;5065961;28;20033;-89
2022/05/21 04:46:35;;;;;;;16.48;3.30;;;;;;;12.06;100.00;101962.09;5055568;28;21108;-87
2022/05/21 04:49:01;;;;;;;18.25;3.20;;;;;;;12.12;100.00;101971.66;5067521;28;20041;-88
2022/05/21 04:51:26;;;;;;;15.07;3.33;;;;;;;12.12;100.00;101969.00;5046319;28;20028;-87
2022/05/21 04:53:52;;;;;;;16.95;2.90;;;;;;;12.11;100.00;101977.88;5031495;28;20024;-88
2022/05/21 04:56:18;;;;;;;17.15;3.50;;;;;;;12.18;100.00;101975.91;5023493;28;20366;-88
2022/05/21 04:58:43;;;;;;;15.20;3.25;;;;;;;12.20;100.00;101984.66;5022919;28;20094;-88
2022/05/21 05:01:09;;;;;;;12.20;2.50;;;;;;;12.22;100.00;101985.50;5042875;28;20137;-88
2022/05/21 05:03:34;;;;;;;11.35;2.95;;;;;;;12.26;100.00;101982.69;5047278;28;20512;-89
2022/05/21 05:06:00;;;;;;;16.90;3.20;;;;;;;12.27;100.00;101988.88;5057241;28;20110;-88
2022/05/21 05:08:26;;;;;;;17.35;2.72;;;;;;;12.32;100.00;101978.09;5042854;28;20032;-88
2022/05/21 05:10:52;;;;;;;13.80;2.47;;;;;;;12.35;100.00;101991.25;5039212;28;20400;-88
2022/05/21 05:13:18;;;;;;;10.95;2.80;;;;;;;12.38;100.00;101996.44;5038807;28;20017;-89
2022/05/21 05:15:45;;;;;;;17.33;2.97;;;;;;;12.43;100.00;101991.88;5048886;28;20052;-88
2022/05/21 05:18:17;;;;;;;12.52;2.97;;;;;;;12.44;100.00;101985.63;5055646;28;20078;-89
2022/05/21 05:20:43;;;;;;;12.38;2.97;;;;;;;12.48;100.00;101997.91;5038751;28;20105;-88
2022/05/21 05:23:09;;;;;;;11.85;2.47;;;;;;;12.52;100.00;101996.88;5045363;28;20096;-89
2022/05/21 05:25:34;;;;;;;13.98;3.20;;;;;;;12.55;100.00;101999.41;5023007;28;20021;-89
2022/05/21 05:28:00;;;;;;;16.40;2.58;;;;;;;12.56;100.00;102010.94;5023623;28;20374;-89
2022/05/21 05:30:27;;;;;;;25.95;3.80;;;;;;;12.60;100.00;102009.88;5039773;28;20040;-89
2022/05/21 05:32:52;;;;;;;14.25;3.00;;;;;;;12.64;100.00;102008.84;5023193;28;20122;-89
2022/05/21 05:35:18;;;;;;;15.35;3.83;;;;;;;12.65;100.00;102015.03;5025506;28;20072;-89
2022/05/21 05:37:44;;;;;;;16.08;2.70;;;;;;;12.66;100.00;102017.66;5028078;28;20044;-89
2022/05/21 05:40:14;;;;;;;16.63;4.05;;;;;;;12.67;100.00;102016.72;5063748;28;20017;-87
2022/05/21 05:42:40;;;;;;;14.07;3.10;;;;;;;12.70;100.00;102019.28;5052009;28;20084;-87
2022/05/21 05:45:07;;;;;;;16.70;2.78;;;;;;;12.71;100.00;102017.47;5062419;28;20506;-88
2022/05/21 05:47:33;;;;;;;13.65;2.88;;;;;;;12.75;100.00;102019.97;5040181;28;20054;-89
2022/05/21 05:49:59;;;;;;;13.90;2.65;;;;;;;12.75;100.00;102009.34;5041696;28;20533;-89
2022/05/21 05:52:28;;;;;;;14.95;2.88;;;;;;;12.83;100.00;102016.19;5041029;28;20052;-89
2022/05/21 05:54:53;;;;;;;16.88;3.88;;;;;;;12.83;100.00;102024.16;5050993;28;20029;-88
2022/05/21 05:57:21;;;;;;;17.50;3.15;;;;;;;12.83;99.73;102019.72;5053890;28;20075;-88
2022/05/21 05:59:50;;;;;;;13.90;3.00;;;;;;;12.85;99.13;102011.69;5037161;28;20025;-86
2022/05/21 06:05:07;;;;;;;11.90;2.60;;;;;;;12.90;100.00;102013.25;5059132;28;20097;-87
2022/05/21 06:07:32;;;;;;;17.63;3.22;;;;;;;12.94;100.00;102011.34;5088014;28;20020;-87
2022/05/21 06:10:05;;;;;;;14.07;3.00;;;;;;;12.99;100.00;102024.47;5063448;28;20081;-85
2022/05/21 06:12:31;;;;;;;11.25;2.67;;;;;;;12.97;99.62;102024.53;5053729;28;20025;-87
2022/05/21 06:14:58;;;;;;;17.75;3.38;;;;;;;13.04;98.60;102018.06;5034918;28;20028;-86
2022/05/21 06:17:25;;;;;;;15.07;2.97;;;;;;;13.04;98.86;102007.41;5054688;28;20021;-88
2022/05/21 06:19:51;;;;;;;15.73;2.60;;;;;;;13.06;98.39;102040.16;5060298;28;20032;-86
2022/05/21 06:22:17;;;;;;;19.42;3.22;;;;;;;13.16;98.82;102037.16;5078178;28;20036;-87
2022/05/21 06:24:42;;;;;;;11.15;2.53;;;;;;;13.21;98.51;102027.22;5045375;28;20404;-87
2022/05/21 06:27:08;;;;;;;18.02;3.22;;;;;;;13.23;96.81;102046.66;5041951;28;20033;-86
2022/05/21 06:29:37;;;;;;;10.65;2.78;;;;;;;13.29;97.15;102046.44;5060449;28;20052;-89
2022/05/21 06:32:07;;;;;;;16.40;2.75;;;;;;;13.36;97.02;102053.28;5043531;28;20108;-87
2022/05/21 06:34:35;;;;;;;17.25;2.97;;;;;;;13.37;97.37;102052.34;5044317;28;20005;-86
2022/05/21 06:37:05;;;;;;;15.30;2.97;;;;;;;13.44;96.88;102053.03;5050650;28;20035;-86
2022/05/21 06:39:33;;;;;;;10.88;2.72;;;;;;;13.61;96.59;102047.03;5005976;28;20494;-87
2022/05/21 06:42:17;;;;;;;20.35;2.70;;;;;;;13.65;95.94;102063.78;5050483;28;20107;-86
2022/05/21 06:44:42;;;;;;;11.95;2.55;;;;;;;13.64;95.69;102070.88;5057333;28;20033;-87
2022/05/21 06:47:09;;;;;;;15.75;2.70;;;;;;;13.69;94.54;102065.38;5052531;28;20568;-86
2022/05/21 06:49:35;;;;;;;13.65;2.72;;;;;;;13.65;94.77;102069.09;5037941;28;20115;-87
2022/05/21 06:52:00;;;;;;;25.42;3.50;;;;;;;13.67;96.10;102078.75;5037216;28;20055;-80
2022/05/21 06:54:27;;;;;;;20.38;3.30;;;;;;;13.66;94.50;102078.78;5006669;28;20044;-87
2022/05/21 06:56:53;;;;;;;10.35;2.67;;;;;;;13.59;94.76;102084.38;5017350;28;20036;-88
2022/05/21 06:59:18;;;;;;;11.80;3.72;;;;;;;13.62;95.62;102085.16;5006164;28;20029;-88
2022/05/21 07:01:44;;;;;;;16.63;2.70;;;;;;;13.72;95.58;102097.19;5019944;28;20040;-86
2022/05/21 07:04:10;;;;;;;15.40;3.28;;;;;;;13.76;96.23;102080.22;5036209;28;20517;-87
2022/05/21 07:09:22;;;;;;;14.32;2.90;;;;;;;13.99;95.26;102089.97;5047716;28;20064;-86
2022/05/21 07:11:49;;;;;;;13.75;2.67;;;;;;;14.10;94.74;102092.19;5019601;28;20500;-86
2022/05/21 07:14:14;;;;;;;12.88;2.63;;;;;;;14.12;94.59;102093.00;5036384;28;20106;-86
2022/05/21 07:16:40;;;;;;;12.25;2.92;;;;;;;14.15;93.76;102100.00;5036077;28;20521;-86
2022/05/21 07:19:07;;;;;;;15.93;3.67;;;;;;;14.17;94.01;102100.78;5039259;28;20032;-86
2022/05/21 07:21:33;;;;;;;12.98;3.50;;;;;;;14.11;93.11;102107.25;5020397;28;20159;-86
2022/05/21 07:23:58;;;;;;;16.67;3.85;;;;;;;14.09;93.01;102111.75;5019893;28;20049;-86
2022/05/21 07:26:24;;;;;;;11.82;2.85;;;;;;;14.30;93.35;102112.72;5056647;28;20040;-88
2022/05/21 07:28:49;;;;;;;12.40;2.80;;;;;;;14.41;93.04;102113.16;5053006;28;20045;-86
2022/05/21 07:31:15;;;;;;;13.20;2.50;;;;;;;14.43;92.08;102127.25;5036318;28;20029;-86
2022/05/21 07:33:41;;;;;;;12.90;2.85;;;;;;;14.54;91.85;102123.28;5052600;28;20460;-87
2022/05/21 07:36:06;;;;;;;12.63;2.65;;;;;;;14.67;91.16;102118.38;5021681;28;20036;-87
2022/05/21 07:38:32;;;;;;;15.52;3.88;;;;;;;14.64;89.86;102127.38;5053122;28;20052;-86
2022/05/21 07:40:59;;;;;;;15.98;3.38;;;;;;;14.66;91.44;102116.63;5030590;28;20391;-85
2022/05/21 07:43:27;;;;;;;16.98;3.17;;;;;;;14.72;91.39;102132.38;5036471;28;20033;-86
2022/05/21 07:45:54;;;;;;;15.88;2.95;;;;;;;14.83;89.90;102139.91;5036338;28;20024;-85
2022/05/21 07:48:21;;;;;;;16.88;3.15;;;;;;;14.81;88.66;102148.00;5040008;28;20064;-86
2022/05/21 07:50:49;;;;;;;18.10;2.90;;;;;;;14.83;88.57;102140.78;5031159;28;20515;-84
2022/05/21 07:53:22;;;;;;;15.05;3.15;;;;;;;14.94;88.98;102142.16;5053243;28;20036;-84
2022/05/21 07:55:53;;;;;;;18.75;3.67;;;;;;;15.04;88.52;102157.69;5053772;28;20031;-88
2022/05/21 07:58:20;;;;;;;10.27;2.83;;;;;;;15.22;88.26;102152.50;5037475;28;20171;-86
2022/05/21 08:00:46;;;;;;;15.35;2.72;;;;;;;15.32;87.01;102151.16;5051614;28;20033;-82
2022/05/21 08:03:12;;;;;;;11.07;2.70;;;;;;;15.39;87.71;102149.94;5022520;28;20403;-86
2022/05/21 08:05:39;;;;;;;14.23;3.25;;;;;;;15.54;86.65;102140.38;5014704;28;20028;-82
2022/05/21 08:08:06;;;;;;;13.38;3.08;;;;;;;15.76;86.00;102141.22;5062534;28;20029;-86
2022/05/21 08:10:32;;;;;;;15.70;3.10;;;;;;;15.77;84.50;102150.94;5037099;28;20028;-87
2022/05/21 08:12:58;;;;;;;12.82;3.17;;;;;;;15.69;84.55;102144.16;5035501;28;20358;-88
2022/05/21 08:15:24;;;;;;;18.50;2.97;;;;;;;15.63;84.56;102149.78;5019396;28;20040;-87
2022/05/21 08:17:49;;;;;;;11.82;3.00;;;;;;;15.60;84.97;102146.38;5035044;28;20064;-87
2022/05/21 08:20:16;;;;;;;13.60;3.13;;;;;;;15.76;86.29;102158.09;5002529;28;20112;-87
2022/05/21 08:28:15;;;;;;;12.80;2.80;;;;;;;16.28;82.52;102164.63;5035334;28;20099;-87
2022/05/21 08:30:43;;;;;;;12.45;3.63;;;;;;;16.35;81.51;102163.41;5034656;28;20029;-87
2022/05/21 08:33:09;;;;;;;11.63;3.28;;;;;;;16.36;81.96;102166.00;5034842;28;20040;-83
2022/05/21 08:35:38;;;;;;;13.82;2.83;;;;;;;16.61;80.67;102153.25;5006512;28;20091;-80
2022/05/21 08:38:04;;;;;;;14.75;3.53;;;;;;;17.26;77.66;102152.69;5045742;28;20128;-85
2022/05/21 08:40:40;;;;;;;12.98;3.13;;;;;;;17.25;77.16;102157.19;5020828;28;20040;-84
2022/05/21 08:43:13;;;;;;;15.70;3.00;;;;;;;17.39;76.20;102152.91;5037120;28;20101;-84
2022/05/21 08:46:15;;;;;;;19.23;4.05;;;;;;;17.99;76.24;102150.59;5044869;28;20115;-84
2022/05/21 08:48:48;;;;;;;15.75;3.22;;;;;;;18.84;71.21;102145.75;5015443;28;20057;-89
2022/05/21 08:51:19;;;;;;;13.95;3.60;;;;;;;19.41;67.46;102146.88;5039693;28;20024;-86
2022/05/21 08:53:49;;;;;;;10.27;3.05;;;;;;;19.32;67.29;102156.34;5038634;28;20032;-85
2022/05/21 08:56:16;;;;;;;19.05;3.30;;;;;;;19.74;66.58;102159.13;5039981;28;20025;-87
2022/05/21 08:58:45;;;;;;;13.38;2.88;;;;;;;20.18;64.92;102159.13;5053021;28;20029;-87
2022/05/21 09:01:12;;;;;;;19.33;3.45;;;;;;;20.26;63.40;102167.56;5038728;28;20098;-87
2022/05/21 09:03:38;;;;;;;11.77;2.80;;;;;;;20.06;65.49;102168.84;5038762;28;20025;-87
2022/05/21 09:06:19;;;;;;;14.90;3.45;;;;;;;20.46;62.13;102179.69;5056292;28;20021;-86
2022/05/21 09:09:06;;;;;;;15.18;3.60;;;;;;;20.74;61.17;102159.06;5038429;28;20122;-87
2022/05/21 09:11:41;;;;;;;13.65;2.72;;;;;;;20.68;60.07;102151.38;5038319;28;20021;-88
2022/05/21 09:14:17;;;;;;;14.77;3.08;;;;;;;20.21;61.54;102167.88;5055508;28;20136;-86
2022/05/21 09:16:57;;;;;;;12.77;2.90;;;;;;;19.93;63.40;102156.19;5038207;28;20029;-87
2022/05/21 09:19:43;;;;;;;14.60;3.00;;;;;;;19.97;62.58;102163.13;5015198;28;20032;-87
2022/05/21 09:22:13;;;;;;;15.10;3.13;;;;;;;19.78;63.46;102147.25;5055580;28;20794;-87
2022/05/21 09:24:42;;;;;;;17.80;3.42;;;;;;;19.37;63.93;102153.38;5037831;28;20024;-86
2022/05/21 09:27:33;;;;;;;15.65;3.78;;;;;;;19.28;66.58;102159.31;5037369;28;20017;-87
2022/05/21 09:30:20;;;;;;;14.10;3.40;;;;;;;19.40;65.23;102160.38;5037243;28;20060;-86
2022/05/21 09:32:56;;;;;;;12.10;2.90;;;;;;;19.16;65.61;102164.47;5034782;28;20104;-87
2022/05/21 09:35:47;;;;;;;10.60;2.80;;;;;;;18.28;67.45;102166.84;5037088;28;20162;-87
2022/05/21 09:38:14;;;;;;;14.75;3.17;;;;;;;18.42;67.38;102159.84;5037458;28;20074;-87
2022/05/21 09:40:41;;;;;;;11.07;3.15;;;;;;;18.39;68.62;102160.00;5037479;28;20047;-87
2022/05/21 09:46:30;;;;;;;14.13;3.47;;;;;;;19.33;65.81;102151.84;5053791;28;20507;-87
2022/05/21 09:49:14;;;;;;;11.80;3.10;;;;;;;19.21;66.08;102172.25;5034393;28;20060;-87
2022/05/21 09:51:40;;;;;;;19.63;4.03;;;;;;;19.03;68.20;102166.16;5035740;28;20033;-88
2022/05/21 09:54:33;;;;;;;14.07;2.95;;;;;;;19.04;68.04;102161.66;5038581;28;20033;-85
2022/05/21 09:56:59;;;;;;;15.88;3.28;;;;;;;18.73;66.50;102174.16;5019417;28;20025;-86
2022/05/21 09:59:28;;;;;;;13.30;3.35;;;;;;;19.05;64.58;102168.75;5046683;28;20460;-87
2022/05/21 10:01:58;;;;;;;13.82;3.38;;;;;;;18.72;66.16;102173.31;5037578;28;20021;-87
2022/05/21 10:05:02;;;;;;;13.20;3.20;;;;;;;18.49;68.35;102178.19;5054755;28;20031;-86
2022/05/21 10:10:58;;;;;;;12.77;2.90;;;;;;;18.87;66.60;102184.09;5055774;28;20047;-87
2022/05/21 10:13:36;;;;;;;12.88;3.42;;;;;;;18.65;68.19;102196.06;5024877;28;20042;-85
2022/05/21 10:16:24;;;;;;;11.88;2.70;;;;;;;18.51;65.45;102191.50;5031379;28;20029;-84
2022/05/21 10:19:12;;;;;;;11.05;2.75;;;;;;;18.61;67.09;102203.44;5038691;28;20043;-86
2022/05/21 10:21:59;;;;;;;14.68;2.88;;;;;;;18.65;66.63;102191.56;5039552;28;20388;-84
2022/05/21 10:24:35;;;;;;;12.55;2.95;;;;;;;19.13;66.03;102186.13;5053772;28;20099;-84
2022/05/21 10:27:22;;;;;;;13.32;3.15;;;;;;;19.57;66.53;102202.34;5042251;28;20017;-85
2022/05/21 10:29:57;;;;;;;13.50;3.00;;;;;;;20.27;60.04;102198.91;5053534;28;20090;-85
2022/05/21 10:33:01;;;;;;;12.95;3.22;;;;;;;20.29;60.29;102205.03;5037804;28;20047;-85
2022/05/21 10:35:45;;;;;;;13.65;2.85;;;;;;;19.93;62.60;102206.41;5035951;28;20044;-86
2022/05/21 10:38:28;;;;;;;15.05;3.63;;;;;;;20.39;60.63;102206.16;5054971;28;20055;-83
2022/05/21 10:40:59;;;;;;;12.88;3.08;;;;;;;21.08;58.76;102197.19;5052855;28;20029;-86
2022/05/21 10:43:37;;;;;;;18.77;3.40;;;;;;;20.95;60.38;102203.41;5053840;28;20108;-85
2022/05/21 10:46:35;;;;;;;12.75;2.75;;;;;;;21.35;54.35;102201.66;5036115;28;20493;-85
2022/05/21 10:49:29;;;;;;;11.57;3.00;;;;;;;20.49;58.39;102202.84;5035511;28;20056;-85
2022/05/21 10:52:10;;;;;;;14.60;3.15;;;;;;;20.48;56.73;102198.47;5053509;28;20048;-84
2022/05/21 10:55:08;;;;;;;11.20;3.10;;;;;;;20.69;56.64;102180.00;5016138;28;20037;-85
2022/05/21 10:57:49;;;;;;;11.93;3.22;;;;;;;20.62;56.62;102180.41;5028245;28;20049;-85
2022/05/21 11:00:29;;;;;;;10.00;2.83;;;;;;;20.92;56.87;102208.13;5053531;28;20100;-85
2022/05/21 11:03:19;;;;;;;13.30;2.72;;;;;;;20.96;55.97;102204.28;5025884;28;20396;-85
2022/05/21 11:05:51;;;;;;;13.20;3.20;;;;;;;20.90;57.56;102208.22;5053201;28;20419;-84
2022/05/21 11:08:28;;;;;;;9.63;2.70;;;;;;;21.36;54.41;102211.47;5035136;28;20028;-84
2022/05/21 11:11:24;;;;;;;11.68;2.78;;;;;;;21.46;55.97;102207.16;5034762;28;20083;-86
2022/05/21 11:14:12;;;;;;;11.80;2.53;;;;;;;21.13;53.00;102205.81;5019535;28;20059;-86
2022/05/21 11:16:51;;;;;;;16.98;3.08;;;;;;;21.03;55.47;102199.34;5035221;28;20044;-85
2022/05/21 11:19:35;;;;;;;12.55;3.67;;;;;;;21.60;54.46;102190.91;5052946;28;20171;-85
2022/05/21 11:22:19;;;;;;;10.93;3.22;;;;;;;20.90;56.58;102199.31;5034380;28;20060;-85
2022/05/21 11:25:23;;;;;;;9.18;2.70;;;;;;;20.94;56.83;102198.97;5036028;28;20588;-85
2022/05/21 11:27:59;;;;;;;12.95;2.97;;;;;;;20.55;57.32;102189.88;5029161;28;20040;-84
2022/05/21 11:30:26;;;;;;;14.68;2.97;;;;;;;20.54;56.85;102198.91;5016127;28;20025;-84
2022/05/21 11:38:36;;;;;;;14.98;3.10;;;;;;;19.78;61.19;102201.00;5058060;28;20036;-85
2022/05/21 11:41:25;;;;;;;12.80;3.13;;;;;;;19.64;60.99;102209.03;5035114;28;20078;-84
2022/05/21 11:43:57;;;;;;;9.23;2.95;;;;;;;19.14;62.31;102201.28;5038376;28;20032;-86
2022/05/21 11:46:37;;;;;;;15.23;3.40;;;;;;;19.28;62.71;102196.91;5037553;28;20063;-84
2022/05/21 11:49:43;;;;;;;9.98;3.05;;;;;;;19.14;60.99;102203.09;5052987;28;20049;-85
2022/05/21 11:52:27;;;;;;;14.07;3.30;;;;;;;19.31;59.79;102204.78;5052504;28;20024;-86
2022/05/21 11:54:53;;;;;;;13.32;2.80;;;;;;;19.13;62.85;102214.78;5037672;28;20408;-84
2022/05/21 11:57:47;;;;;;;14.85;3.00;;;;;;;18.86;62.11;102212.72;5040152;28;20115;-87